Time;durP1;ratioP1;P1;durP2;ratioP2;P2;SDS_P1;SDS_P2;PMS_P1;PMS_P2;Temp;Humidity;BMP_temperature;BMP_pressure;BME280_temperature;BME280_humidity;BME280_pressure;Samples;Min_cycle;Max_cycle;Signal;HPM_P1;HPM_P2
2023/10/07 00:00:26;;;;;;;12.53;7.37;;;;;;;;;;5097923;28;20225;-77
2023/10/07 00:02:53;;;;;;;14.47;7.73;;;;;;;;;;5117727;28;20209;-77
2023/10/07 00:05:26;;;;;;;14.20;7.83;;;;;;;;;;5101114;28;20213;-77
2023/10/07 00:07:55;;;;;;;16.33;7.60;;;;;;;;;;5099457;28;20190;-77
2023/10/07 00:10:25;;;;;;;13.53;7.60;;;;;;;;;;5119213;28;20182;-77
2023/10/07 00:12:52;;;;;;;14.93;7.73;;;;;;;;;;5104428;28;20195;-77
2023/10/07 00:15:21;;;;;;;12.53;7.77;;;;;;;;;;5084374;28;20182;-77
2023/10/07 00:17:47;;;;;;;11.70;6.93;;;;;;;;;;5093028;28;20190;-75
2023/10/07 00:20:17;;;;;;;15.90;7.40;;;;;;;;;;5110205;27;20189;-77
2023/10/07 00:22:49;;;;;;;14.10;8.07;;;;;;;;;;5101035;28;20218;-77
2023/10/07 00:25:19;;;;;;;18.93;7.87;;;;;;;;;;5100674;28;20177;-76
2023/10/07 00:27:47;;;;;;;14.93;7.67;;;;;;;;;;5099414;28;20182;-76
2023/10/07 00:30:16;;;;;;;13.50;7.50;;;;;;;;;;5101288;28;20189;-76
2023/10/07 00:32:45;;;;;;;13.57;7.40;;;;;;;;;;5119331;28;20174;-77
2023/10/07 00:35:11;;;;;;;14.00;7.70;;;;;;;;;;5097692;28;20178;-77
2023/10/07 00:37:38;;;;;;;15.37;7.30;;;;;;;;;;5102820;27;20185;-77
2023/10/07 00:40:14;;;;;;;13.30;8.03;;;;;;;;;;5122049;27;20209;-79
2023/10/07 00:42:44;;;;;;;15.40;8.20;;;;;;;;;;5076463;28;20318;-79
2023/10/07 00:45:16;;;;;;;12.80;7.60;;;;;;;;;;5081048;28;20277;-77
2023/10/07 00:47:42;;;;;;;16.03;8.40;;;;;;;;;;5076292;28;20209;-76
2023/10/07 00:50:11;;;;;;;14.37;8.03;;;;;;;;;;5112092;28;20177;-76
2023/10/07 00:52:55;;;;;;;19.53;8.20;;;;;;;;;;5099891;28;20189;-77
2023/10/07 00:55:29;;;;;;;17.77;8.50;;;;;;;;;;5101388;28;20189;-77
2023/10/07 00:58:17;;;;;;;12.97;8.30;;;;;;;;;;5088464;27;20184;-77
2023/10/07 01:00:47;;;;;;;18.33;9.17;;;;;;;;;;5127690;27;20226;-77
2023/10/07 01:08:41;;;;;;;20.67;8.80;;;;;;;;;;5102604;27;20181;-77
2023/10/07 01:11:19;;;;;;;21.60;9.63;;;;;;;;;;5086112;28;20197;-74
2023/10/07 01:13:50;;;;;;;15.47;9.00;;;;;;;;;;5081842;28;20186;-74
2023/10/07 01:16:26;;;;;;;18.37;9.10;;;;;;;;;;5109847;28;20182;-74
2023/10/07 01:18:59;;;;;;;15.80;8.93;;;;;;;;;;5081297;28;20214;-74
2023/10/07 01:21:31;;;;;;;18.97;10.23;;;;;;;;;;5087025;28;20212;-74
2023/10/07 01:24:05;;;;;;;19.70;10.17;;;;;;;;;;5118267;28;20201;-74
2023/10/07 01:26:36;;;;;;;13.37;9.03;;;;;;;;;;5084175;28;20189;-77
2023/10/07 01:29:13;;;;;;;16.00;10.00;;;;;;;;;;5083587;28;20190;-77
2023/10/07 01:31:59;;;;;;;18.23;10.07;;;;;;;;;;5116199;28;20185;-77
2023/10/07 01:34:25;;;;;;;18.27;9.93;;;;;;;;;;5118038;28;20170;-77
2023/10/07 01:36:52;;;;;;;16.13;9.77;;;;;;;;;;5100251;28;20207;-77
2023/10/07 01:39:18;;;;;;;21.63;10.07;;;;;;;;;;5099593;28;20186;-77
2023/10/07 01:41:45;;;;;;;17.30;9.73;;;;;;;;;;5099984;28;20206;-78
2023/10/07 01:44:11;;;;;;;21.73;10.67;;;;;;;;;;5107954;27;20189;-76
2023/10/07 01:46:40;;;;;;;16.93;10.47;;;;;;;;;;5100880;28;20201;-75
2023/10/07 01:49:12;;;;;;;19.60;11.13;;;;;;;;;;5080682;28;20186;-75
2023/10/07 01:51:44;;;;;;;18.43;10.70;;;;;;;;;;5099477;28;20186;-75
2023/10/07 01:54:11;;;;;;;24.07;11.23;;;;;;;;;;5117218;28;20174;-75
2023/10/07 01:56:38;;;;;;;18.97;11.30;;;;;;;;;;5105305;27;20178;-75
2023/10/07 02:01:42;;;;;;;20.23;11.80;;;;;;;;;;5099352;28;20277;-78
2023/10/07 02:04:16;;;;;;;17.07;11.27;;;;;;;;;;5076107;28;20266;-78
2023/10/07 02:06:51;;;;;;;19.83;11.23;;;;;;;;;;5058925;28;20187;-77
2023/10/07 02:09:24;;;;;;;19.87;11.43;;;;;;;;;;5059467;28;20182;-77
2023/10/07 02:11:51;;;;;;;22.40;12.33;;;;;;;;;;5071293;28;20196;-77
2023/10/07 02:14:21;;;;;;;19.00;12.23;;;;;;;;;;5099199;28;20209;-77
2023/10/07 02:16:47;;;;;;;19.43;12.27;;;;;;;;;;5060171;28;20190;-78
2023/10/07 02:19:14;;;;;;;20.53;12.77;;;;;;;;;;5077425;28;20200;-77
2023/10/07 02:21:41;;;;;;;17.90;11.87;;;;;;;;;;5062297;28;20206;-78
2023/10/07 02:24:14;;;;;;;20.73;12.20;;;;;;;;;;5097637;28;20186;-78
2023/10/07 02:26:43;;;;;;;23.27;13.87;;;;;;;;;;5087978;28;20186;-78
2023/10/07 02:29:13;;;;;;;20.17;12.87;;;;;;;;;;5096605;28;20190;-77
2023/10/07 02:31:43;;;;;;;23.40;13.80;;;;;;;;;;5075079;28;20225;-78
2023/10/07 02:34:21;;;;;;;22.47;12.93;;;;;;;;;;5092881;28;20181;-77
2023/10/07 02:36:51;;;;;;;21.40;13.67;;;;;;;;;;5078277;28;20173;-77
2023/10/07 02:39:39;;;;;;;25.93;14.43;;;;;;;;;;5079205;28;20193;-77
2023/10/07 02:42:05;;;;;;;28.10;13.50;;;;;;;;;;5077863;28;20256;-77
2023/10/07 02:44:31;;;;;;;22.50;13.40;;;;;;;;;;5096363;28;20179;-77
2023/10/07 02:46:58;;;;;;;22.07;14.10;;;;;;;;;;5061227;28;20214;-77
2023/10/07 02:49:26;;;;;;;22.27;13.70;;;;;;;;;;5061069;28;20186;-79
2023/10/07 02:51:55;;;;;;;23.37;14.30;;;;;;;;;;5082968;28;20190;-78
2023/10/07 02:54:22;;;;;;;23.90;14.10;;;;;;;;;;5062704;28;20183;-78
2023/10/07 02:57:09;;;;;;;22.50;15.50;;;;;;;;;;5058265;28;20233;-78
2023/10/07 02:59:41;;;;;;;21.97;15.33;;;;;;;;;;5094488;28;20234;-78
2023/10/07 03:04:43;;;;;;;23.43;15.67;;;;;;;;;;5084084;28;20220;-78
2023/10/07 03:07:14;;;;;;;21.30;15.07;;;;;;;;;;5115671;28;20201;-75
2023/10/07 03:09:52;;;;;;;22.70;14.87;;;;;;;;;;5073369;28;20270;-75
2023/10/07 03:12:27;;;;;;;24.33;15.07;;;;;;;;;;5094351;28;20310;-75
2023/10/07 03:14:57;;;;;;;26.17;15.60;;;;;;;;;;5075253;28;20209;-75
2023/10/07 03:17:33;;;;;;;27.80;16.13;;;;;;;;;;5041495;28;20183;-75
2023/10/07 03:20:23;;;;;;;25.47;15.03;;;;;;;;;;5057399;28;20190;-75
2023/10/07 03:23:10;;;;;;;21.17;15.70;;;;;;;;;;5078430;28;20214;-79
2023/10/07 03:25:49;;;;;;;28.60;16.53;;;;;;;;;;5070174;28;20194;-79
2023/10/07 03:28:17;;;;;;;25.40;15.43;;;;;;;;;;5055880;28;20179;-78
2023/10/07 03:30:51;;;;;;;25.00;15.77;;;;;;;;;;5078891;28;20183;-78
2023/10/07 03:33:24;;;;;;;27.00;16.57;;;;;;;;;;5082298;28;20218;-79
2023/10/07 03:38:25;;;;;;;23.80;15.70;;;;;;;;;;5112845;28;20223;-79
2023/10/07 03:40:54;;;;;;;25.30;15.53;;;;;;;;;;5062733;28;20205;-75
2023/10/07 03:43:26;;;;;;;26.40;16.43;;;;;;;;;;5060692;28;20209;-75
2023/10/07 03:45:55;;;;;;;30.10;16.33;;;;;;;;;;5079920;28;20197;-74
2023/10/07 03:48:25;;;;;;;25.17;16.57;;;;;;;;;;5080084;28;20273;-75
2023/10/07 03:51:07;;;;;;;29.93;18.00;;;;;;;;;;5072372;28;20237;-75
2023/10/07 03:53:44;;;;;;;29.20;16.83;;;;;;;;;;5060460;28;20186;-75
2023/10/07 03:56:10;;;;;;;31.33;17.00;;;;;;;;;;5086079;28;20175;-78
2023/10/07 03:58:41;;;;;;;27.03;17.27;;;;;;;;;;5095112;28;20239;-78
2023/10/07 04:01:17;;;;;;;30.87;18.17;;;;;;;;;;5071194;28;20190;-75
2023/10/07 04:03:47;;;;;;;26.83;17.17;;;;;;;;;;5080770;28;20217;-75
2023/10/07 04:06:17;;;;;;;32.93;18.57;;;;;;;;;;5060437;28;20205;-75
2023/10/07 04:08:45;;;;;;;25.03;17.33;;;;;;;;;;5060092;28;20178;-75
2023/10/07 04:11:19;;;;;;;34.20;18.67;;;;;;;;;;5087526;28;20190;-75
2023/10/07 04:13:45;;;;;;;27.60;18.33;;;;;;;;;;5057501;28;20190;-78
2023/10/07 04:16:23;;;;;;;27.27;18.77;;;;;;;;;;5077203;28;20198;-78
2023/10/07 04:18:50;;;;;;;33.60;19.17;;;;;;;;;;5066472;28;20190;-78
2023/10/07 04:21:16;;;;;;;29.10;19.20;;;;;;;;;;5076363;28;20177;-78
2023/10/07 04:23:43;;;;;;;32.53;19.77;;;;;;;;;;5111492;28;20217;-78
2023/10/07 04:26:10;;;;;;;28.17;18.20;;;;;;;;;;5094991;28;20233;-78
2023/10/07 04:28:39;;;;;;;29.67;19.13;;;;;;;;;;5074930;28;20224;-78
2023/10/07 04:31:12;;;;;;;34.80;19.13;;;;;;;;;;5077184;28;20194;-78
2023/10/07 04:33:40;;;;;;;26.07;17.93;;;;;;;;;;5092732;28;20190;-78
2023/10/07 04:36:11;;;;;;;30.77;18.67;;;;;;;;;;5060652;28;20194;-79
2023/10/07 04:38:52;;;;;;;33.53;18.93;;;;;;;;;;5041447;28;20278;-78
2023/10/07 04:46:29;;;;;;;28.53;19.30;;;;;;;;;;5075999;28;20187;-78
2023/10/07 04:49:18;;;;;;;33.27;19.60;;;;;;;;;;5065706;28;20185;-78
2023/10/07 04:54:08;;;;;;;33.70;20.10;;;;;;;;;;5099248;28;20249;-78
2023/10/07 04:56:35;;;;;;;35.63;19.50;;;;;;;;;;5064422;28;20191;-78
2023/10/07 04:59:05;;;;;;;35.10;19.70;;;;;;;;;;5066561;28;20230;-78
2023/10/07 05:01:31;;;;;;;29.93;18.47;;;;;;;;;;5097264;28;20202;-78
2023/10/07 05:04:04;;;;;;;33.33;19.93;;;;;;;;;;5085970;28;20190;-77
2023/10/07 05:06:34;;;;;;;29.23;20.60;;;;;;;;;;5098015;28;20162;-78
2023/10/07 05:09:10;;;;;;;34.53;19.13;;;;;;;;;;5065327;28;20209;-77
2023/10/07 05:11:43;;;;;;;31.17;20.40;;;;;;;;;;5083616;28;20214;-78
2023/10/07 05:14:10;;;;;;;33.17;19.57;;;;;;;;;;5099974;22;20252;-78
2023/10/07 05:16:37;;;;;;;33.10;21.27;;;;;;;;;;5090846;28;20204;-75
2023/10/07 05:19:04;;;;;;;31.53;20.03;;;;;;;;;;5088990;28;20190;-75
2023/10/07 05:21:31;;;;;;;37.13;21.00;;;;;;;;;;5088698;28;20181;-75
2023/10/07 05:24:02;;;;;;;32.57;20.43;;;;;;;;;;5065307;28;20167;-75
2023/10/07 05:26:30;;;;;;;38.47;20.63;;;;;;;;;;5089380;28;20167;-75
2023/10/07 05:29:02;;;;;;;30.80;20.90;;;;;;;;;;5088835;28;20173;-76
2023/10/07 05:31:30;;;;;;;37.17;21.20;;;;;;;;;;5087149;28;20170;-77
2023/10/07 05:33:59;;;;;;;34.30;20.77;;;;;;;;;;5086883;28;20165;-76
2023/10/07 05:36:29;;;;;;;32.03;20.83;;;;;;;;;;5081599;28;20184;-75
2023/10/07 05:38:56;;;;;;;32.27;21.03;;;;;;;;;;5077743;28;20199;-75
2023/10/07 05:41:25;;;;;;;29.87;21.47;;;;;;;;;;5071835;28;20362;-75
2023/10/07 05:43:51;;;;;;;35.80;22.40;;;;;;;;;;5062246;28;20210;-75
2023/10/07 05:46:19;;;;;;;32.57;21.40;;;;;;;;;;5067493;28;20177;-75
2023/10/07 05:48:45;;;;;;;35.77;22.90;;;;;;;;;;5072175;28;20175;-75
2023/10/07 05:51:11;;;;;;;33.70;23.47;;;;;;;;;;5049777;28;20198;-75
2023/10/07 05:53:38;;;;;;;41.43;23.10;;;;;;;;;;5074295;28;20194;-76
2023/10/07 05:56:06;;;;;;;38.90;23.37;;;;;;;;;;5111434;28;20194;-75
2023/10/07 05:58:33;;;;;;;30.10;22.30;;;;;;;;;;5103363;28;20170;-75
2023/10/07 06:01:00;;;;;;;36.00;24.50;;;;;;;;;;5082698;28;20185;-75
2023/10/07 06:03:26;;;;;;;37.10;24.20;;;;;;;;;;5066435;28;20207;-76
2023/10/07 06:05:52;;;;;;;35.17;24.00;;;;;;;;;;5116998;28;20257;-76
2023/10/07 06:08:19;;;;;;;33.10;24.33;;;;;;;;;;5091330;28;20178;-76
2023/10/07 06:10:56;;;;;;;36.50;23.97;;;;;;;;;;5072940;28;20178;-77
2023/10/07 06:13:22;;;;;;;38.20;23.67;;;;;;;;;;5068162;28;20238;-77
2023/10/07 06:15:48;;;;;;;33.47;24.10;;;;;;;;;;5075651;28;20236;-77
2023/10/07 06:18:18;;;;;;;35.30;23.43;;;;;;;;;;5060358;28;20195;-75
2023/10/07 06:20:50;;;;;;;37.33;23.30;;;;;;;;;;5066840;28;20192;-75
2023/10/07 06:23:18;;;;;;;37.20;23.40;;;;;;;;;;5079723;28;20214;-75
2023/10/07 06:25:51;;;;;;;35.10;23.63;;;;;;;;;;5092505;28;20175;-75
2023/10/07 06:28:29;;;;;;;40.93;24.87;;;;;;;;;;5077384;28;20237;-77
2023/10/07 06:31:01;;;;;;;34.50;24.40;;;;;;;;;;5056158;28;20187;-77
2023/10/07 06:33:27;;;;;;;34.33;23.73;;;;;;;;;;5079521;28;20195;-74
2023/10/07 06:35:59;;;;;;;37.73;23.63;;;;;;;;;;5066927;28;20183;-74
2023/10/07 06:38:26;;;;;;;36.07;23.87;;;;;;;;;;5057150;28;20191;-78
2023/10/07 06:40:53;;;;;;;36.70;22.90;;;;;;;;;;5074400;28;20183;-78
2023/10/07 06:43:21;;;;;;;37.13;22.07;;;;;;;;;;5056840;28;20272;-76
2023/10/07 06:45:48;;;;;;;32.03;22.87;;;;;;;;;;5058074;28;20190;-75
2023/10/07 06:48:23;;;;;;;35.67;23.67;;;;;;;;;;5061881;28;20246;-75
2023/10/07 06:50:52;;;;;;;29.83;23.03;;;;;;;;;;5080786;28;20166;-75
2023/10/07 06:53:22;;;;;;;37.63;22.83;;;;;;;;;;5081942;28;20190;-75
2023/10/07 06:55:49;;;;;;;39.23;22.83;;;;;;;;;;5063564;28;20186;-75
2023/10/07 06:58:15;;;;;;;38.20;22.63;;;;;;;;;;5083270;28;20180;-76
2023/10/07 07:00:47;;;;;;;35.83;22.60;;;;;;;;;;5084628;28;20175;-77
2023/10/07 07:03:19;;;;;;;35.23;22.33;;;;;;;;;;5064887;28;20218;-77
2023/10/07 07:05:46;;;;;;;32.73;22.00;;;;;;;;;;5082149;28;20166;-78
2023/10/07 07:08:12;;;;;;;33.77;22.73;;;;;;;;;;5077289;28;20273;-78
2023/10/07 07:10:40;;;;;;;34.30;21.37;;;;;;;;;;5077048;28;20186;-77
2023/10/07 07:13:17;;;;;;;36.60;22.03;;;;;;;;;;5094405;28;20183;-77
2023/10/07 07:15:43;;;;;;;34.87;21.70;;;;;;;;;;5081967;28;20186;-77
2023/10/07 07:23:40;;;;;;;33.17;20.17;;;;;;;;;;5069753;28;20218;-78
2023/10/07 07:26:10;;;;;;;28.57;19.67;;;;;;;;;;5079452;28;20193;-77
2023/10/07 07:28:43;;;;;;;31.40;19.43;;;;;;;;;;5103726;28;20178;-77
2023/10/07 07:31:19;;;;;;;29.73;19.57;;;;;;;;;;5076572;28;20191;-77
2023/10/07 07:33:48;;;;;;;35.70;20.30;;;;;;;;;;5109687;28;20306;-77
2023/10/07 07:38:52;;;;;;;36.17;18.70;;;;;;;;;;5107246;28;20178;-78
2023/10/07 07:41:29;;;;;;;33.23;19.70;;;;;;;;;;5088508;28;20166;-77
2023/10/07 07:44:03;;;;;;;26.80;18.23;;;;;;;;;;5081451;28;20208;-77
2023/10/07 07:46:29;;;;;;;26.37;18.20;;;;;;;;;;5067122;28;20173;-77
2023/10/07 07:49:06;;;;;;;28.67;18.97;;;;;;;;;;5105889;28;20181;-78
2023/10/07 07:51:40;;;;;;;31.20;18.67;;;;;;;;;;5089581;28;20201;-77
2023/10/07 07:54:07;;;;;;;26.93;17.53;;;;;;;;;;5078073;28;20180;-77
2023/10/07 07:56:34;;;;;;;25.57;17.30;;;;;;;;;;5064714;28;20190;-77
2023/10/07 07:59:00;;;;;;;29.53;17.33;;;;;;;;;;5096736;28;20206;-77
2023/10/07 08:01:28;;;;;;;27.37;16.87;;;;;;;;;;5083787;28;20197;-77
2023/10/07 08:04:10;;;;;;;28.63;17.60;;;;;;;;;;5087551;28;20217;-78
2023/10/07 08:06:37;;;;;;;28.27;17.30;;;;;;;;;;5100178;28;20190;-75
2023/10/07 08:09:03;;;;;;;30.70;18.27;;;;;;;;;;5088742;28;20186;-75
2023/10/07 08:11:36;;;;;;;27.63;17.50;;;;;;;;;;5084738;28;20170;-75
2023/10/07 08:14:09;;;;;;;26.33;17.03;;;;;;;;;;5089083;28;20283;-76
2023/10/07 08:16:50;;;;;;;29.73;17.93;;;;;;;;;;5079387;28;20187;-75
2023/10/07 08:19:20;;;;;;;31.47;18.07;;;;;;;;;;5077449;28;20193;-76
2023/10/07 08:21:46;;;;;;;27.60;18.60;;;;;;;;;;5063383;28;20185;-76
2023/10/07 08:24:13;;;;;;;28.33;18.07;;;;;;;;;;5079932;28;20218;-77
2023/10/07 08:26:48;;;;;;;26.13;17.87;;;;;;;;;;5062932;28;20174;-78
2023/10/07 08:29:31;;;;;;;23.30;16.27;;;;;;;;;;5064087;28;20237;-78
2023/10/07 08:31:57;;;;;;;26.03;15.97;;;;;;;;;;5080401;28;20286;-78
2023/10/07 08:34:31;;;;;;;23.50;16.60;;;;;;;;;;5079847;28;20190;-78
2023/10/07 08:37:00;;;;;;;21.43;15.50;;;;;;;;;;5081463;28;20186;-78
2023/10/07 08:39:28;;;;;;;21.83;15.00;;;;;;;;;;5064537;28;20206;-75
2023/10/07 08:41:58;;;;;;;21.30;15.13;;;;;;;;;;5099003;28;20210;-75
2023/10/07 08:44:31;;;;;;;21.73;14.93;;;;;;;;;;5098906;28;20171;-76
2023/10/07 08:47:04;;;;;;;18.90;14.53;;;;;;;;;;5062497;28;20202;-75
2023/10/07 08:49:35;;;;;;;17.73;12.97;;;;;;;;;;5077978;28;20171;-76
2023/10/07 08:52:08;;;;;;;21.20;13.10;;;;;;;;;;5082028;28;20182;-75
2023/10/07 08:54:37;;;;;;;22.40;13.00;;;;;;;;;;5081115;28;20227;-76
2023/10/07 08:57:37;;;;;;;20.23;12.13;;;;;;;;;;5062429;28;20187;-79
2023/10/07 08:59:59;;;;;;;18.47;13.00;;;;;;;;;;5091040;28;20187;-80
2023/10/07 09:02:30;;;;;;;20.13;12.83;;;;;;;;;;5077573;28;20202;-77
2023/10/07 09:05:08;;;;;;;16.70;12.47;;;;;;;;;;5077996;28;20244;-77
2023/10/07 09:07:36;;;;;;;19.73;12.57;;;;;;;;;;5082085;28;20179;-77
2023/10/07 09:10:16;;;;;;;18.80;12.50;;;;;;;;;;5080470;28;20197;-77
2023/10/07 09:12:48;;;;;;;17.77;12.33;;;;;;;;;;5098420;28;20175;-79
2023/10/07 09:15:25;;;;;;;15.37;11.17;;;;;;;;;;5097836;28;20226;-79
2023/10/07 09:17:52;;;;;;;16.77;11.17;;;;;;;;;;5079831;28;20224;-80
2023/10/07 09:20:29;;;;;;;16.03;10.33;;;;;;;;;;5062777;28;20183;-80
2023/10/07 09:22:57;;;;;;;18.23;10.97;;;;;;;;;;5079361;28;20242;-80
2023/10/07 09:25:31;;;;;;;15.67;10.10;;;;;;;;;;5079184;28;20246;-80
2023/10/07 09:27:58;;;;;;;15.80;10.00;;;;;;;;;;5079237;28;20174;-78
2023/10/07 09:33:14;;;;;;;16.53;10.10;;;;;;;;;;5078122;28;20187;-77
2023/10/07 09:35:42;;;;;;;13.40;9.23;;;;;;;;;;5072923;28;20209;-78
2023/10/07 09:38:12;;;;;;;15.40;9.73;;;;;;;;;;5063747;28;20182;-78
2023/10/07 09:43:27;;;;;;;15.63;9.27;;;;;;;;;;5088888;28;20225;-77
2023/10/07 09:45:53;;;;;;;15.40;9.20;;;;;;;;;;5062885;28;20286;-79
2023/10/07 09:48:33;;;;;;;14.60;9.03;;;;;;;;;;5097010;28;20171;-77
2023/10/07 09:51:00;;;;;;;15.37;8.47;;;;;;;;;;5097495;28;20239;-77
2023/10/07 09:53:36;;;;;;;16.43;9.17;;;;;;;;;;5070496;28;20177;-77
2023/10/07 09:56:21;;;;;;;16.77;8.10;;;;;;;;;;5107429;28;20199;-77
2023/10/07 09:59:18;;;;;;;15.10;7.90;;;;;;;;;;5092768;28;20174;-77
2023/10/07 10:01:53;;;;;;;15.20;8.50;;;;;;;;;;5096781;28;20269;-77
2023/10/07 10:04:46;;;;;;;13.63;8.50;;;;;;;;;;5079579;28;20178;-77
2023/10/07 10:07:12;;;;;;;14.02;8.25;;;;;;;;;;5078434;28;20182;-77
2023/10/07 10:12:29;;;;;;;13.25;7.80;;;;;;;;;;5096089;28;20466;-77
2023/10/07 10:15:50;;;;;;;14.95;8.02;;;;;;;;;;5075083;28;20223;-77
2023/10/07 10:17:56;;;;;;;15.90;8.02;;;;;;;;;;5075415;28;20406;-78
2023/10/07 10:20:27;;;;;;;12.32;7.72;;;;;;;;;;5074642;28;20210;-78
2023/10/07 10:23:00;;;;;;;10.88;7.38;;;;;;;;;;5058225;28;20432;-77
2023/10/07 10:25:36;;;;;;;14.27;7.63;;;;;;;;;;5074461;28;20455;-78
2023/10/07 10:28:10;;;;;;;13.50;8.02;;;;;;;;;;5041049;28;20430;-77
2023/10/07 10:30:53;;;;;;;13.32;8.23;;;;;;;;;;5057114;28;20399;-78
2023/10/07 10:33:28;;;;;;;12.77;7.63;;;;;;;;;;5056331;28;20406;-77
2023/10/07 10:35:57;;;;;;;13.98;7.03;;;;;;;;;;5075115;28;20171;-78
2023/10/07 10:38:41;;;;;;;13.82;7.32;;;;;;;;;;5075337;28;20187;-78
2023/10/07 10:41:08;;;;;;;13.63;7.80;;;;;;;;;;5057509;28;20413;-78
2023/10/07 10:43:34;;;;;;;14.05;7.32;;;;;;;;;;5056778;28;20441;-78
2023/10/07 10:46:01;;;;;;;14.80;8.27;;;;;;;;;;5075032;28;20399;-77
2023/10/07 10:48:30;;;;;;;16.47;7.90;;;;;;;;;;5057288;28;20403;-78
2023/10/07 10:50:56;;;;;;;11.98;7.43;;;;;;;;;;5056282;28;20398;-78
2023/10/07 10:53:23;;;;;;;14.63;7.85;;;;;;;;;;5056850;28;20411;-77
2023/10/07 10:55:50;;;;;;;13.20;7.45;;;;;;;;;;5056866;28;20417;-78
2023/10/07 10:58:19;;;;;;;12.97;8.03;;;;;;;;;;5058088;28;20494;-78
2023/10/07 11:00:51;;;;;;;14.50;7.68;;;;;;;;;;5057396;28;20403;-78
2023/10/07 11:03:20;;;;;;;13.17;7.43;;;;;;;;;;5057532;28;20500;-78
2023/10/07 11:05:48;;;;;;;12.20;6.75;;;;;;;;;;5057704;28;20167;-78
2023/10/07 11:08:15;;;;;;;15.95;6.80;;;;;;;;;;5037406;28;20184;-78
2023/10/07 11:10:42;;;;;;;15.82;7.40;;;;;;;;;;5040930;28;20489;-76
2023/10/07 11:13:08;;;;;;;14.48;7.30;;;;;;;;;;5037483;28;20419;-76
2023/10/07 11:15:35;;;;;;;17.42;7.93;;;;;;;;;;5019885;28;20478;-76
2023/10/07 11:18:12;;;;;;;15.10;7.57;;;;;;;;;;5020673;28;20427;-77
2023/10/07 11:20:40;;;;;;;15.70;7.88;;;;;;;;;;5037342;28;20313;-80
2023/10/07 11:23:08;;;;;;;15.43;7.63;;;;;;;;;;5036110;28;20431;-80
2023/10/07 11:25:41;;;;;;;14.90;7.78;;;;;;;;;;5036382;28;20416;-80
2023/10/07 11:28:11;;;;;;;13.95;7.72;;;;;;;;;;5036024;28;20407;-76
2023/10/07 11:30:49;;;;;;;12.95;7.10;;;;;;;;;;5036254;28;20487;-76
2023/10/07 11:33:16;;;;;;;15.10;7.53;;;;;;;;;;5053194;28;20450;-76
2023/10/07 11:35:42;;;;;;;12.97;7.00;;;;;;;;;;5054352;28;20408;-76
2023/10/07 11:38:11;;;;;;;13.67;7.43;;;;;;;;;;5054222;28;20407;-76
2023/10/07 11:40:37;;;;;;;15.45;7.35;;;;;;;;;;5054027;28;20415;-76
2023/10/07 11:43:08;;;;;;;13.63;7.18;;;;;;;;;;5036903;28;20438;-76
2023/10/07 11:45:36;;;;;;;16.80;7.53;;;;;;;;;;5039996;28;20428;-76
2023/10/07 11:48:04;;;;;;;16.25;7.55;;;;;;;;;;5039444;28;20406;-76
2023/10/07 11:50:35;;;;;;;16.60;7.60;;;;;;;;;;5038275;28;20406;-76
2023/10/07 11:53:01;;;;;;;14.25;7.00;;;;;;;;;;5052371;28;20422;-76
2023/10/07 11:55:27;;;;;;;15.93;7.20;;;;;;;;;;5039044;28;20569;-76
2023/10/07 11:57:54;;;;;;;15.60;7.40;;;;;;;;;;5039922;28;20440;-76
2023/10/07 12:00:23;;;;;;;16.48;7.28;;;;;;;;;;5073682;28;20439;-80
2023/10/07 12:02:52;;;;;;;15.40;7.70;;;;;;;;;;5055057;28;20451;-79
2023/10/07 12:05:19;;;;;;;16.83;7.25;;;;;;;;;;5055244;28;20418;-80
2023/10/07 12:07:47;;;;;;;15.55;6.95;;;;;;;;;;5039128;28;20403;-80
2023/10/07 12:10:17;;;;;;;12.82;6.57;;;;;;;;;;5054841;28;20429;-80
2023/10/07 12:12:43;;;;;;;15.45;6.53;;;;;;;;;;5055042;28;20489;-79
2023/10/07 12:15:17;;;;;;;16.42;6.63;;;;;;;;;;5092695;28;20474;-80
2023/10/07 12:17:44;;;;;;;14.63;6.55;;;;;;;;;;5075502;28;20428;-80
2023/10/07 12:20:12;;;;;;;13.98;6.30;;;;;;;;;;5042444;28;20429;-80
2023/10/07 12:22:42;;;;;;;16.17;6.40;;;;;;;;;;5053718;28;20422;-79
2023/10/07 12:25:08;;;;;;;13.80;6.07;;;;;;;;;;5054187;28;20539;-79
2023/10/07 12:27:36;;;;;;;12.95;6.03;;;;;;;;;;5085654;28;20405;-79
2023/10/07 12:30:03;;;;;;;13.23;6.00;;;;;;;;;;5057985;28;20409;-79
2023/10/07 12:32:29;;;;;;;16.30;7.07;;;;;;;;;;5058509;28;20460;-77
2023/10/07 12:34:57;;;;;;;16.17;6.55;;;;;;;;;;5038866;28;20402;-79
2023/10/07 12:37:23;;;;;;;14.20;6.30;;;;;;;;;;5059814;28;20210;-80
2023/10/07 12:39:49;;;;;;;15.23;6.00;;;;;;;;;;5068016;28;20270;-80
2023/10/07 12:42:15;;;;;;;16.50;6.10;;;;;;;;;;5077891;28;20239;-80
2023/10/07 12:44:41;;;;;;;14.85;5.90;;;;;;;;;;5073909;28;20233;-80
2023/10/07 12:47:08;;;;;;;15.73;5.90;;;;;;;;;;5074899;28;20250;-79
2023/10/07 12:49:40;;;;;;;21.02;6.57;;;;;;;;;;5059199;28;20270;-80
2023/10/07 12:52:06;;;;;;;16.83;5.72;;;;;;;;;;5094731;28;20171;-79
2023/10/07 12:54:34;;;;;;;16.05;6.10;;;;;;;;;;5076317;28;20273;-79
2023/10/07 12:57:03;;;;;;;15.82;6.07;;;;;;;;;;5059456;28;20182;-79
2023/10/07 12:59:35;;;;;;;16.97;6.43;;;;;;;;;;5075858;28;20424;-79
2023/10/07 13:02:03;;;;;;;18.60;6.85;;;;;;;;;;5095800;28;20439;-79
2023/10/07 13:04:34;;;;;;;12.35;5.38;;;;;;;;;;5079617;28;20178;-79
2023/10/07 13:07:03;;;;;;;15.77;5.25;;;;;;;;;;5064119;28;20270;-80
2023/10/07 13:09:32;;;;;;;16.10;6.03;;;;;;;;;;5097564;28;20171;-81
2023/10/07 13:11:59;;;;;;;17.75;6.13;;;;;;;;;;5097647;28;20254;-80
2023/10/07 13:14:26;;;;;;;17.45;6.32;;;;;;;;;;5059659;28;20532;-80
2023/10/07 13:16:56;;;;;;;16.20;6.00;;;;;;;;;;5077618;28;20163;-80
2023/10/07 13:19:26;;;;;;;15.90;6.53;;;;;;;;;;5074974;28;20441;-78
2023/10/07 13:21:52;;;;;;;16.27;6.25;;;;;;;;;;5059148;28;20425;-78
2023/10/07 13:24:18;;;;;;;16.50;6.35;;;;;;;;;;5076804;28;20175;-79
2023/10/07 13:26:44;;;;;;;16.90;6.53;;;;;;;;;;5057995;28;20467;-79
2023/10/07 13:29:10;;;;;;;19.83;5.97;;;;;;;;;;5059096;28;20179;-79
2023/10/07 13:31:38;;;;;;;13.73;6.10;;;;;;;;;;5059133;28;20246;-79
2023/10/07 13:34:06;;;;;;;14.75;5.72;;;;;;;;;;5057523;28;20324;-79
2023/10/07 13:36:32;;;;;;;18.70;6.22;;;;;;;;;;5076930;28;20176;-79
2023/10/07 13:39:01;;;;;;;14.73;5.70;;;;;;;;;;5059388;28;20204;-79
2023/10/07 13:41:27;;;;;;;16.17;5.90;;;;;;;;;;5075915;28;20267;-80
2023/10/07 13:43:53;;;;;;;18.00;5.95;;;;;;;;;;5075534;28;20207;-80
2023/10/07 13:46:19;;;;;;;14.18;5.88;;;;;;;;;;5058416;28;20317;-81
2023/10/07 13:48:45;;;;;;;19.02;6.25;;;;;;;;;;5058158;28;20211;-80
2023/10/07 13:51:12;;;;;;;12.67;5.77;;;;;;;;;;5074986;28;20189;-80
2023/10/07 13:56:44;;;;;;;18.10;6.20;;;;;;;;;;5034178;28;20200;-80
2023/10/07 13:59:11;;;;;;;15.73;6.50;;;;;;;;;;5042007;28;20237;-79
2023/10/07 14:01:37;;;;;;;12.67;5.37;;;;;;;;;;5038235;28;20188;-79
2023/10/07 14:04:03;;;;;;;14.70;5.63;;;;;;;;;;5049000;28;20246;-79
2023/10/07 14:06:30;;;;;;;16.53;5.87;;;;;;;;;;5057913;28;20202;-79
2023/10/07 14:08:58;;;;;;;17.13;6.40;;;;;;;;;;5042044;28;20266;-79
2023/10/07 14:11:24;;;;;;;19.02;6.15;;;;;;;;;;5041266;28;20237;-79
2023/10/07 14:13:50;;;;;;;15.70;6.18;;;;;;;;;;5044510;28;20235;-77
2023/10/07 14:16:17;;;;;;;13.83;5.83;;;;;;;;;;5074696;28;20182;-77
2023/10/07 14:18:44;;;;;;;16.57;6.33;;;;;;;;;;5074898;28;20194;-76
2023/10/07 14:21:10;;;;;;;17.67;6.07;;;;;;;;;;5075780;28;20218;-77
2023/10/07 14:23:37;;;;;;;18.23;6.17;;;;;;;;;;5072686;28;20207;-76
2023/10/07 14:26:04;;;;;;;15.43;6.33;;;;;;;;;;5057754;28;20210;-75
2023/10/07 14:28:30;;;;;;;13.93;5.80;;;;;;;;;;5075602;28;20199;-74
2023/10/07 14:30:57;;;;;;;15.10;5.90;;;;;;;;;;5073994;28;20198;-74
2023/10/07 14:33:23;;;;;;;16.00;6.73;;;;;;;;;;5052719;28;20187;-75
2023/10/07 14:35:53;;;;;;;14.47;6.23;;;;;;;;;;5065877;28;20218;-75
2023/10/07 14:38:20;;;;;;;12.27;5.47;;;;;;;;;;5075590;28;20176;-74
2023/10/07 14:40:49;;;;;;;15.73;6.00;;;;;;;;;;5058144;28;20179;-75
2023/10/07 14:43:16;;;;;;;16.73;5.83;;;;;;;;;;5074041;28;20210;-75
2023/10/07 14:45:49;;;;;;;14.60;5.93;;;;;;;;;;5073061;28;20187;-74
2023/10/07 14:48:16;;;;;;;14.63;5.90;;;;;;;;;;5074460;28;20225;-77
2023/10/07 14:50:42;;;;;;;15.43;6.13;;;;;;;;;;5073557;28;20184;-77
2023/10/07 14:53:08;;;;;;;15.23;5.90;;;;;;;;;;5057721;28;20183;-77
2023/10/07 14:55:35;;;;;;;15.90;6.37;;;;;;;;;;5073527;28;20194;-76
2023/10/07 14:58:03;;;;;;;15.43;6.20;;;;;;;;;;5073055;28;20179;-78
2023/10/07 15:00:30;;;;;;;16.20;6.20;;;;;;;;;;5074186;28;20179;-79
2023/10/07 15:02:56;;;;;;;18.13;6.30;;;;;;;;;;5074220;28;20210;-76
2023/10/07 15:05:26;;;;;;;13.33;6.13;;;;;;;;;;5056745;28;20211;-75
2023/10/07 15:07:52;;;;;;;18.03;6.47;;;;;;;;;;5073574;28;20260;-76
2023/10/07 15:10:18;;;;;;;19.40;6.43;;;;;;;;;;5053388;28;20183;-77
2023/10/07 15:12:45;;;;;;;22.00;6.27;;;;;;;;;;5054366;28;20275;-78
2023/10/07 15:15:14;;;;;;;18.43;6.43;;;;;;;;;;5039966;28;20234;-78
2023/10/07 15:17:44;;;;;;;14.47;5.80;;;;;;;;;;5072347;28;20190;-78
2023/10/07 15:20:10;;;;;;;14.40;6.00;;;;;;;;;;5094901;28;20231;-78